Akeley, Minnesota
Current Conditions -  °F | °C
As of 3:35 PM on Thursday 18 Dec 2014 (Local Time) from KY49 Reporting Station
Overcast Overcast  
Wind Chill:   Ceiling: 1200
Heat Index: 18°   Visibility: 10mi
Dew Point: 13°   Wind: 7mph
Humidity: 83%   Direction: 160°SSE
Pressure: 30.21"   Gusts: NA
Location:  47°N, 94.73°W
Report Text: KY49 182135Z AUTO 16006KT 10SM OVC012 M08/M10 A3021 RMK AO2 T10801105
Loading
Personal Weather Stations






























Interactive Weather Map New forecast layout! Learn more

10-Day Weather Forecast

Advertisements
Track Severe Weather on mobile